createdAt,value
2023-02-22T00:02:25.479Z,99772.42
2023-02-22T00:05:00.687Z,99778.66
2023-02-22T00:07:35.840Z,99777.23
2023-02-22T00:10:26.751Z,99779.04
2023-02-22T00:13:13.365Z,99775.71
2023-02-22T00:15:56.109Z,99776.77
2023-02-22T00:18:49.073Z,99778.94
2023-02-22T00:21:34.079Z,99777.41
2023-02-22T00:24:24.004Z,99777.77
2023-02-22T00:27:00.730Z,99777.92
2023-02-22T00:29:36.535Z,99777.98
2023-02-22T00:32:22.911Z,99782.86
2023-02-22T00:35:08.358Z,99780.77
2023-02-22T00:37:52.594Z,99783.89
2023-02-22T00:40:46.499Z,99784.06
2023-02-22T00:43:38.939Z,99790.20
2023-02-22T00:46:32.158Z,99790.61
2023-02-22T00:49:15.139Z,99794.29
2023-02-22T00:51:50.583Z,99794.44
2023-02-22T00:54:43.023Z,99797.46
2023-02-22T00:57:35.202Z,99799.63
2023-02-22T01:00:28.154Z,99800.98
2023-02-22T01:03:21.691Z,99803.95
2023-02-22T01:06:08.951Z,99803.92
2023-02-22T01:08:53.905Z,99807.73
2023-02-22T01:11:45.452Z,99806.02
2023-02-22T01:14:37.890Z,99805.89
2023-02-22T01:17:19.353Z,99799.92
2023-02-22T01:20:14.129Z,99796.61
2023-02-22T01:22:58.968Z,99794.89
2023-02-22T01:25:51.240Z,99793.79
2023-02-22T01:28:34.769Z,99790.22
2023-02-22T01:31:25.638Z,99786.63
2023-02-22T01:33:58.160Z,99788.44
2023-02-22T01:36:41.360Z,99786.66
2023-02-22T01:39:28.565Z,99789.30
2023-02-22T01:42:19.398Z,99791.13
2023-02-22T01:45:47.403Z,99794.97
2023-02-22T01:48:44.550Z,99793.50
2023-02-22T01:51:30.632Z,99797.79
2023-02-22T01:54:15.928Z,99800.01
2023-02-22T01:57:01.212Z,99804.92
2023-02-22T01:59:41.380Z,99800.75
2023-02-22T02:02:33.808Z,99802.34
2023-02-22T02:05:19.158Z,99799.27
2023-02-22T02:07:54.655Z,99797.14
2023-02-22T02:10:36.371Z,99797.91
2023-02-22T02:13:13.080Z,99794.66
2023-02-22T02:16:05.829Z,99798.08
2023-02-22T02:18:58.481Z,99798.37
2023-02-22T02:22:00.940Z,99798.32
2023-02-22T02:25:33.301Z,99800.48
2023-02-22T02:28:54.878Z,99803.42
2023-02-22T02:32:20.780Z,99800.40
2023-02-22T02:35:22.067Z,99801.85
2023-02-22T02:38:18.224Z,99803.66
2023-02-22T02:44:04.115Z,99797.54
2023-02-22T02:47:02.143Z,99799.45
2023-02-22T02:49:59.780Z,99798.17
2023-02-22T02:52:43.411Z,99793.73
2023-02-22T02:55:20.101Z,99793.53
2023-02-22T02:58:20.748Z,99791.75
2023-02-22T03:01:04.801Z,99804.79
2023-02-22T03:04:06.715Z,99804.64
2023-02-22T03:07:23.785Z,99804.76
2023-02-22T03:10:13.303Z,99806.39
2023-02-22T03:13:10.341Z,99808.02
2023-02-22T03:16:12.880Z,99804.54
2023-02-22T03:19:07.326Z,99808.88
2023-02-22T03:21:58.248Z,99806.42
2023-02-22T03:24:55.009Z,99807.52
2023-02-22T03:27:33.728Z,99807.84
2023-02-22T03:30:32.177Z,99808.10
2023-02-22T03:33:33.839Z,99808.73
2023-02-22T03:36:31.629Z,99812.92
2023-02-22T03:39:20.397Z,99807.86
2023-02-22T03:41:59.479Z,99814.20
2023-02-22T03:44:44.411Z,99819.48
2023-02-22T03:47:24.137Z,99821.11
2023-02-22T03:50:16.386Z,99819.00
2023-02-22T03:53:08.961Z,99821.84
2023-02-22T03:55:58.524Z,99819.64
2023-02-22T03:58:52.898Z,99822.29
2023-02-22T04:01:44.459Z,99819.42
2023-02-22T04:04:31.523Z,99822.89
2023-02-22T04:07:07.473Z,99824.36
2023-02-22T04:09:50.850Z,99829.45
2023-02-22T04:12:43.836Z,99833.65
2023-02-22T04:15:36.404Z,99829.30
2023-02-22T04:18:20.673Z,99824.50
2023-02-22T04:20:56.609Z,99826.13
2023-02-22T04:24:01.270Z,99825.80
2023-02-22T04:26:52.004Z,99824.54
2023-02-22T04:29:27.332Z,99829.05
2023-02-22T04:32:20.096Z,99825.09
2023-02-22T04:35:12.698Z,99825.30
2023-02-22T04:38:06.091Z,99823.87
2023-02-22T04:40:48.580Z,99820.52
2023-02-22T04:43:39.428Z,99817.09
2023-02-22T04:46:21.008Z,99817.89
2023-02-22T04:49:08.125Z,99816.74
2023-02-22T04:51:44.011Z,99812.73
2023-02-22T04:54:37.090Z,99812.52
2023-02-22T04:57:18.509Z,99810.17
2023-02-22T05:00:10.991Z,99808.87
2023-02-22T05:03:03.435Z,99810.05
2023-02-22T05:05:45.130Z,99810.89
2023-02-22T05:08:31.781Z,99808.70
2023-02-22T05:11:24.500Z,99811.27
2023-02-22T05:14:16.907Z,99813.31
2023-02-22T05:17:09.247Z,99813.00
2023-02-22T05:19:39.898Z,99814.98
2023-02-22T05:22:33.177Z,99817.64
2023-02-22T05:25:25.835Z,99816.64
2023-02-22T05:28:19.118Z,99824.45
2023-02-22T05:30:56.175Z,99819.31
2023-02-22T05:33:48.618Z,99822.27
2023-02-22T05:36:39.642Z,99827.89
2023-02-22T05:39:32.597Z,99827.98
2023-02-22T05:42:19.601Z,99825.63
2023-02-22T05:45:15.690Z,99829.77
2023-02-22T05:48:09.576Z,99835.17
2023-02-22T05:50:52.785Z,99831.11
2023-02-22T05:53:38.103Z,99830.41
2023-02-22T05:56:28.907Z,99836.57
2023-02-22T05:59:11.254Z,99841.02
2023-02-22T06:02:03.625Z,99846.34
2023-02-22T06:05:04.826Z,99850.85
2023-02-22T06:07:38.730Z,99847.52
2023-02-22T06:10:14.001Z,99847.27
2023-02-22T06:13:07.885Z,99846.59
2023-02-22T06:16:00.272Z,99850.54
2023-02-22T06:18:43.536Z,99855.05
2023-02-22T06:21:34.317Z,99858.58
2023-02-22T06:24:19.364Z,99860.58
2023-02-22T06:27:11.993Z,99864.83
2023-02-22T06:30:03.918Z,99866.14
2023-02-22T06:32:49.268Z,99867.91
2023-02-22T06:35:41.579Z,99871.88
2023-02-22T06:38:27.758Z,99870.85
2023-02-22T06:41:12.294Z,99869.58
2023-02-22T06:43:58.464Z,99872.99
2023-02-22T06:46:52.230Z,99875.02
2023-02-22T06:49:44.112Z,99876.48
2023-02-22T06:52:29.450Z,99879.45
2023-02-22T06:55:23.711Z,99878.92
2023-02-22T06:58:16.316Z,99881.91
2023-02-22T07:00:58.729Z,99884.91
2023-02-22T07:03:53.040Z,99889.52
2023-02-22T07:06:38.734Z,99892.66
2023-02-22T07:09:31.104Z,99892.23
2023-02-22T07:12:11.934Z,99890.14
2023-02-22T07:15:02.883Z,99888.94
2023-02-22T07:17:55.382Z,99891.59
2023-02-22T07:20:41.762Z,99891.38
2023-02-22T07:23:34.149Z,99896.20
2023-02-22T07:26:20.510Z,99893.17
2023-02-22T07:28:55.856Z,99889.29
2023-02-22T07:31:41.233Z,99890.55
2023-02-22T07:34:19.106Z,99890.52
2023-02-22T07:37:02.411Z,99895.23
2023-02-22T07:39:45.399Z,99892.39
2023-02-22T07:42:28.795Z,99892.44
2023-02-22T07:45:06.342Z,99891.77
2023-02-22T07:47:59.203Z,99892.39
2023-02-22T07:50:41.471Z,99892.98
2023-02-22T07:53:28.668Z,99894.38
2023-02-22T07:56:08.987Z,99895.45
2023-02-22T07:58:53.959Z,99893.99
2023-02-22T08:01:37.506Z,99899.51
2023-02-22T08:04:13.094Z,99892.48
2023-02-22T08:06:46.418Z,99896.07
2023-02-22T08:09:23.948Z,99898.48
2023-02-22T08:12:07.087Z,99900.13
2023-02-22T08:14:50.448Z,99901.77
2023-02-22T08:17:33.688Z,99902.80
2023-02-22T08:20:10.237Z,99906.30
2023-02-22T08:22:56.964Z,99906.77
2023-02-22T08:25:33.141Z,99910.04
2023-02-22T08:28:12.672Z,99907.99
2023-02-22T08:30:57.945Z,99912.48
2023-02-22T08:33:50.644Z,99913.30
2023-02-22T08:36:45.715Z,99910.20
2023-02-22T08:39:31.933Z,99910.06
2023-02-22T08:42:09.143Z,99912.92
2023-02-22T08:45:01.538Z,99910.17
2023-02-22T08:47:36.476Z,99906.75
2023-02-22T08:50:22.534Z,99910.89
2023-02-22T08:53:07.162Z,99907.85
2023-02-22T08:55:52.281Z,99907.87
2023-02-22T08:58:38.621Z,99905.92
2023-02-22T09:01:19.318Z,99906.66
2023-02-22T09:04:04.406Z,99905.92
2023-02-22T09:06:57.004Z,99905.66
2023-02-22T09:09:32.302Z,99906.48
2023-02-22T09:12:15.892Z,99907.75
2023-02-22T09:14:51.291Z,99910.17
2023-02-22T09:17:26.747Z,99905.78
2023-02-22T09:20:03.843Z,99910.15
2023-02-22T09:22:39.188Z,99908.25
2023-02-22T09:25:32.022Z,99908.20
2023-02-22T09:28:13.426Z,99909.96
2023-02-22T09:30:46.193Z,99911.79
2023-02-22T09:33:32.582Z,99909.98
2023-02-22T09:36:21.843Z,99906.78
2023-02-22T09:38:59.641Z,99905.38
2023-02-22T09:41:48.478Z,99902.66
2023-02-22T09:44:28.178Z,99902.12
2023-02-22T09:47:03.755Z,99904.32
2023-02-22T09:49:59.584Z,99907.40
2023-02-22T09:52:40.719Z,99902.51
2023-02-22T09:55:31.178Z,99901.19
2023-02-22T09:58:11.178Z,99904.70
2023-02-22T10:00:48.414Z,99901.33
2023-02-22T10:03:36.164Z,99893.50
2023-02-22T10:06:14.934Z,99890.98
2023-02-22T10:08:51.177Z,99889.55
2023-02-22T10:11:37.219Z,99890.94
2023-02-22T10:14:29.475Z,99883.37
2023-02-22T10:17:12.985Z,99882.25
2023-02-22T10:19:56.477Z,99880.16
2023-02-22T10:23:43.557Z,99876.53
2023-02-22T10:26:44.971Z,99882.21
2023-02-22T10:29:28.394Z,99883.59
2023-02-22T10:32:04.580Z,99882.85
2023-02-22T10:34:43.655Z,99880.30
2023-02-22T10:37:28.049Z,99879.02
2023-02-22T10:40:20.555Z,99882.12
2023-02-22T10:42:52.788Z,99875.30
2023-02-22T10:45:37.348Z,99876.80
2023-02-22T10:48:11.965Z,99874.14
2023-02-22T10:50:46.852Z,99871.16
2023-02-22T10:53:19.267Z,99866.86
2023-02-22T10:56:27.768Z,99870.92
2023-02-22T10:59:02.607Z,99871.71
2023-02-22T11:01:41.028Z,99869.16
2023-02-22T11:04:17.138Z,99863.15
2023-02-22T11:07:10.202Z,99866.92
2023-02-22T11:09:59.649Z,99867.33
2023-02-22T11:12:38.545Z,99863.42
2023-02-22T11:15:30.069Z,99859.68
2023-02-22T11:18:05.083Z,99865.46
2023-02-22T11:20:48.961Z,99864.86
2023-02-22T11:23:33.356Z,99857.81
2023-02-22T11:26:10.418Z,99859.24
2023-02-22T11:28:57.653Z,99859.05
2023-02-22T11:31:33.125Z,99857.86
2023-02-22T11:34:08.635Z,99855.27
2023-02-22T11:36:54.822Z,99854.27
2023-02-22T11:39:29.721Z,99851.45
2023-02-22T11:42:22.785Z,99850.14
2023-02-22T11:45:13.487Z,99848.36
2023-02-22T11:48:01.950Z,99844.73
2023-02-22T11:51:01.177Z,99846.23
2023-02-22T11:54:01.330Z,99844.02
2023-02-22T11:56:40.716Z,99846.24
2023-02-22T11:59:28.224Z,99843.91
2023-02-22T12:02:06.079Z,99842.42
2023-02-22T12:05:13.295Z,99839.90
2023-02-22T12:08:03.167Z,99835.39
2023-02-22T12:10:55.304Z,99839.36
2023-02-22T12:13:49.621Z,99836.73
2023-02-22T12:16:31.799Z,99833.94
2023-02-22T12:19:09.451Z,99835.83
2023-02-22T12:21:48.531Z,99838.41
2023-02-22T12:24:25.486Z,99834.77
2023-02-22T12:27:05.656Z,99839.02
2023-02-22T12:29:44.553Z,99834.05
2023-02-22T12:32:31.062Z,99837.02
2023-02-22T12:35:10.947Z,99833.40
2023-02-22T12:37:58.946Z,99837.48
2023-02-22T12:40:40.794Z,99836.61
2023-02-22T12:43:22.477Z,99833.76
2023-02-22T12:46:11.564Z,99833.79
2023-02-22T12:48:53.366Z,99833.16
2023-02-22T12:51:32.921Z,99830.38
2023-02-22T12:54:19.857Z,99828.48
2023-02-22T12:57:21.860Z,99830.34
2023-02-22T12:59:57.297Z,99828.33
2023-02-22T13:02:38.258Z,99819.98
2023-02-22T13:05:18.537Z,99825.38
2023-02-22T13:08:11.345Z,99825.66
2023-02-22T13:11:03.975Z,99825.06
2023-02-22T13:13:54.870Z,99818.02
2023-02-22T13:16:37.617Z,99817.02
2023-02-22T13:19:23.181Z,99812.09
2023-02-22T13:22:06.433Z,99812.88
2023-02-22T13:25:00.416Z,99815.66
2023-02-22T13:27:38.867Z,99810.81
2023-02-22T13:30:30.513Z,99810.99
2023-02-22T13:33:40.799Z,99810.85
2023-02-22T13:36:23.116Z,99811.59
2023-02-22T13:39:20.411Z,99811.31
2023-02-22T13:42:05.255Z,99813.95
2023-02-22T13:44:59.830Z,99812.95
2023-02-22T13:47:51.201Z,99809.65
2023-02-22T13:50:43.175Z,99814.06
2023-02-22T13:53:45.433Z,99813.09
2023-02-22T13:56:30.520Z,99811.58
2023-02-22T13:59:04.497Z,99815.73
2023-02-22T14:01:58.076Z,99811.05
2023-02-22T14:04:50.465Z,99811.62
2023-02-22T14:07:50.833Z,99807.42
2023-02-22T14:10:51.896Z,99802.39
2023-02-22T14:13:57.027Z,99797.33
2023-02-22T14:16:30.585Z,99794.27
2023-02-22T14:19:23.640Z,99797.76
2023-02-22T14:22:03.069Z,99800.94
2023-02-22T14:24:46.881Z,99805.39
2023-02-22T14:27:42.819Z,99806.14
2023-02-22T14:30:27.147Z,99809.04
2023-02-22T14:33:03.081Z,99811.88
2023-02-22T14:35:50.369Z,99807.06
2023-02-22T14:38:26.530Z,99807.64
2023-02-22T14:41:11.263Z,99803.39
2023-02-22T14:46:56.883Z,99798.39
2023-02-22T14:49:45.958Z,99803.80
2023-02-22T14:52:40.822Z,99810.36
2023-02-22T14:55:29.061Z,99808.33
2023-02-22T14:58:28.950Z,99811.02
2023-02-22T15:01:27.262Z,99811.20
2023-02-22T15:04:19.697Z,99810.06
2023-02-22T15:06:56.497Z,99812.27
2023-02-22T15:10:05.777Z,99808.30
2023-02-22T15:12:51.987Z,99807.11
2023-02-22T15:15:38.781Z,99809.91
2023-02-22T15:19:04.950Z,99805.91
2023-02-22T15:22:09.888Z,99806.30
2023-02-22T15:25:07.089Z,99809.75
2023-02-22T15:27:55.156Z,99808.42
2023-02-22T15:31:19.424Z,99814.83
2023-02-22T15:34:29.951Z,99813.77
2023-02-22T15:37:29.479Z,99816.17
2023-02-22T15:40:21.731Z,99814.25
2023-02-22T15:43:15.320Z,99813.64
2023-02-22T15:46:14.201Z,99812.14
2023-02-22T15:49:37.197Z,99810.01
2023-02-22T15:52:33.668Z,99809.91
2023-02-22T15:55:18.573Z,99806.82
2023-02-22T15:58:13.071Z,99806.05
2023-02-22T16:01:34.629Z,99802.92
2023-02-22T16:04:31.706Z,99809.44
2023-02-22T16:07:17.853Z,99811.48
2023-02-22T16:10:23.549Z,99811.69
2023-02-22T16:13:30.981Z,99813.98
2023-02-22T16:16:32.334Z,99811.67
2023-02-22T16:19:39.252Z,99813.46
2023-02-22T16:22:34.766Z,99815.94
2023-02-22T16:25:27.484Z,99822.68
2023-02-22T16:28:34.041Z,99827.23
2023-02-22T16:31:29.467Z,99824.64
2023-02-22T16:34:11.502Z,99824.30
2023-02-22T16:36:57.786Z,99828.08
2023-02-22T16:39:52.500Z,99832.00
2023-02-22T16:42:36.027Z,99829.67
2023-02-22T16:45:16.355Z,99828.05
2023-02-22T16:48:05.675Z,99837.41
2023-02-22T16:50:52.419Z,99836.75
2023-02-22T16:53:31.838Z,99841.02
2023-02-22T16:56:17.880Z,99840.48
2023-02-22T16:59:15.347Z,99841.63
2023-02-22T17:01:58.845Z,99839.60
2023-02-22T17:04:52.047Z,99842.14
2023-02-22T17:07:45.334Z,99845.94
2023-02-22T17:10:22.234Z,99845.21
2023-02-22T17:13:16.109Z,99845.05
2023-02-22T17:16:05.966Z,99849.64
2023-02-22T17:18:58.806Z,99849.42
2023-02-22T17:21:53.244Z,99852.65
2023-02-22T17:24:46.927Z,99852.80
2023-02-22T17:27:33.379Z,99855.52
2023-02-22T17:30:31.287Z,99860.79
2023-02-22T17:33:26.822Z,99859.18
2023-02-22T17:36:08.093Z,99855.34
2023-02-22T17:39:02.027Z,99855.64
2023-02-22T17:41:57.674Z,99852.95
2023-02-22T17:44:50.122Z,99856.61
2023-02-22T17:47:51.346Z,99856.61
2023-02-22T17:50:46.613Z,99856.60
2023-02-22T17:53:40.453Z,99856.91
2023-02-22T17:56:33.284Z,99858.36
2023-02-22T17:59:09.512Z,99856.48
2023-02-22T18:02:03.344Z,99856.98
2023-02-22T18:04:55.936Z,99853.92
2023-02-22T18:07:48.931Z,99853.06
2023-02-22T18:10:42.706Z,99857.13
2023-02-22T18:13:35.153Z,99855.84
2023-02-22T18:16:26.836Z,99852.18
2023-02-22T18:19:22.711Z,99855.63
2023-02-22T18:22:15.653Z,99857.30
2023-02-22T18:25:09.381Z,99857.48
2023-02-22T18:28:02.181Z,99857.16
2023-02-22T18:30:55.077Z,99857.05
2023-02-22T18:33:48.319Z,99855.66
2023-02-22T18:36:40.807Z,99860.27
2023-02-22T18:39:26.068Z,99862.65
2023-02-22T18:42:17.608Z,99863.61
2023-02-22T18:45:11.484Z,99862.55
2023-02-22T18:48:04.445Z,99861.52
2023-02-22T18:51:00.162Z,99862.16
2023-02-22T18:53:47.787Z,99860.30
2023-02-22T18:56:41.119Z,99861.52
2023-02-22T18:59:33.838Z,99859.63
2023-02-22T19:02:26.484Z,99858.98
2023-02-22T19:05:17.339Z,99855.27
2023-02-22T19:08:11.484Z,99860.27
2023-02-22T19:10:56.808Z,99854.90
2023-02-22T19:13:50.590Z,99852.38
2023-02-22T19:16:46.502Z,99854.42
2023-02-22T19:19:39.118Z,99854.18
2023-02-22T19:22:32.861Z,99858.70
2023-02-22T19:25:25.566Z,99858.19
2023-02-22T19:28:17.950Z,99860.88
2023-02-22T19:31:19.550Z,99859.23
2023-02-22T19:34:15.071Z,99856.98
2023-02-22T19:37:08.762Z,99856.68
2023-02-22T19:39:55.265Z,99856.11
2023-02-22T19:42:42.281Z,99856.95
2023-02-22T19:45:35.166Z,99854.27
2023-02-22T19:48:20.868Z,99857.71
2023-02-22T19:51:14.938Z,99854.88
2023-02-22T19:54:18.138Z,99858.70
2023-02-22T19:57:13.630Z,99858.96
2023-02-22T20:03:26.470Z,99859.33
2023-02-22T20:06:19.122Z,99858.96
2023-02-22T20:09:16.855Z,99859.30
2023-02-22T20:12:12.554Z,99864.02
2023-02-22T20:15:08.528Z,99863.00
2023-02-22T20:18:02.140Z,99860.86
2023-02-22T20:20:57.933Z,99864.24
2023-02-22T20:23:50.985Z,99860.81
2023-02-22T20:26:49.960Z,99864.08
2023-02-22T20:29:32.698Z,99864.59
2023-02-22T20:32:29.192Z,99865.42
2023-02-22T20:35:23.616Z,99863.10
2023-02-22T20:38:09.550Z,99864.78
2023-02-22T20:41:02.722Z,99863.85
2023-02-22T20:43:55.430Z,99862.55
2023-02-22T20:46:41.702Z,99863.05
2023-02-22T20:49:43.815Z,99863.03
2023-02-22T20:52:37.559Z,99860.98
2023-02-22T20:55:28.756Z,99860.20
2023-02-22T20:58:14.742Z,99858.73
2023-02-22T21:01:10.081Z,99857.08
2023-02-22T21:04:04.919Z,99857.02
2023-02-22T21:06:49.984Z,99855.23
2023-02-22T21:09:42.739Z,99854.32
2023-02-22T21:12:36.116Z,99856.78
2023-02-22T21:15:25.929Z,99855.55
2023-02-22T21:18:18.433Z,99853.87
2023-02-22T21:21:10.522Z,99852.78
2023-02-22T21:24:03.221Z,99852.06
2023-02-22T21:26:49.235Z,99852.44
2023-02-22T21:29:34.838Z,99852.36
2023-02-22T21:32:27.462Z,99851.04
2023-02-22T21:35:21.411Z,99847.79
2023-02-22T21:38:14.613Z,99847.36
2023-02-22T21:41:07.571Z,99846.84
2023-02-22T21:43:53.830Z,99844.45
2023-02-22T21:46:48.903Z,99846.98
2023-02-22T21:49:41.330Z,99845.23
2023-02-22T21:52:25.664Z,99847.20
2023-02-22T21:55:19.330Z,99848.32
2023-02-22T21:58:06.028Z,99848.60
2023-02-22T22:00:48.788Z,99843.66
2023-02-22T22:03:41.164Z,99844.81
2023-02-22T22:06:27.882Z,99844.43
2023-02-22T22:09:19.210Z,99843.68
2023-02-22T22:12:12.333Z,99844.77
2023-02-22T22:15:05.117Z,99845.91
2023-02-22T22:18:05.484Z,99839.63
2023-02-22T22:20:57.907Z,99838.27
2023-02-22T22:23:50.665Z,99837.02
2023-02-22T22:26:44.073Z,99835.13
2023-02-22T22:29:37.530Z,99837.21
2023-02-22T22:32:30.750Z,99835.09
2023-02-22T22:35:23.574Z,99839.55
2023-02-22T22:38:16.763Z,99838.02
2023-02-22T22:41:10.438Z,99834.75
2023-02-22T22:44:02.744Z,99835.73
2023-02-22T22:46:49.884Z,99836.14
2023-02-22T22:49:42.796Z,99833.74
2023-02-22T22:52:37.754Z,99835.74
2023-02-22T22:55:30.383Z,99834.09
2023-02-22T22:58:21.160Z,99835.59
2023-02-22T23:01:19.742Z,99838.39
2023-02-22T23:04:07.994Z,99841.66
2023-02-22T23:07:00.532Z,99844.59
2023-02-22T23:09:51.545Z,99840.13
2023-02-22T23:12:44.036Z,99838.46
2023-02-22T23:15:29.820Z,99837.48
2023-02-22T23:18:22.294Z,99838.28
2023-02-22T23:21:15.467Z,99833.29
2023-02-22T23:24:00.800Z,99831.70
2023-02-22T23:26:48.570Z,99834.52
2023-02-22T23:29:45.676Z,99830.77
2023-02-22T23:32:38.396Z,99830.89
2023-02-22T23:35:30.976Z,99827.54
2023-02-22T23:38:24.236Z,99829.56
2023-02-22T23:41:10.146Z,99831.91
2023-02-22T23:43:55.185Z,99831.55
2023-02-22T23:46:48.979Z,99831.46
2023-02-22T23:49:43.481Z,99832.02
2023-02-22T23:52:44.329Z,99833.33
2023-02-22T23:55:39.200Z,99829.86
2023-02-22T23:58:32.189Z,99831.52
